ROMMA est une association bénévole à but non lucratif. Votre soutien est indispensable : ADHERER à ROMMA ou FAIRE un DON

Crest - (26, Drôme)

Vallée de la Drôme (315 m)   Longitude: 5°2' E   Latitude: 44°44' N Station partenaire n°62
 

Détail journalier du     <<     >>

Température Precipitation Humidité Pression Vent Dir Rafale Dir. rafale Ensol.
Heure (°C) (mm) (%) (hPa) (km/h) (km/h) (min)
01:00 21.405510101SE5SE0
02:00 21.205510101SE10SE0
03:00 19.806010091SE8SE0
04:00 20.105910092SE6SSE0
05:00 20.405710092SSE6SE0
06:00 19.706110091SE6SE0
07:00 20.1061101008SE0
08:00 20.706010101---5SE0
09:00 19.50.37510114SSO19SO0
10:00 22.10.36610114NE16SSO12
11:00 23.405610113NE13ENE0
12:00 18.248710127NE19ENE0
13:00 19.509110116ENE23ENE0
14:00 23.806710118ENE21ENE36
15:00 25.905910114ESE18ENE43
16:00 26.405210106NE18ENE60
17:00 26.804310092ESE10SE22
18:00 28.503710092SSO6SSO47
19:00 27.404510092SSE10SE44
20:00 26.104610096NE16ENE11
21:00 24.305210105SSO13NE0
22:00 22.805910103SSO8NNO0
23:00 21.906510105SSO18NNO0
minuit 21.906510104ESE16N0

Graphique du 07-08-2019

 

Serveur OMMA